Time;durP1;ratioP1;P1;durP2;ratioP2;P2;SDS_P1;SDS_P2;PMS_P1;PMS_P2;Temp;Humidity;BMP_temperature;BMP_pressure;BME280_temperature;BME280_humidity;BME280_pressure;Samples;Min_cycle;Max_cycle;Signal;HPM_P1;HPM_P2
2023/04/17 00:01:24;;;;;;;60.20;41.58;;;8.10;99.90;;;;;;5005992;28;20041;-75
2023/04/17 00:03:51;;;;;;;62.15;39.88;;;8.10;99.90;;;;;;4989058;28;20100;-75
2023/04/17 00:06:18;;;;;;;65.03;42.88;;;8.10;99.90;;;;;;4997107;28;20045;-75
2023/04/17 00:08:45;;;;;;;60.67;41.53;;;8.10;99.90;;;;;;4995543;28;20522;-76
2023/04/17 00:11:12;;;;;;;65.68;42.83;;;8.00;99.90;;;;;;4990189;28;20269;-75
2023/04/17 00:13:39;;;;;;;64.75;41.28;;;8.00;99.90;;;;;;5000867;28;20092;-75
2023/04/17 00:16:07;;;;;;;63.13;41.55;;;8.10;99.90;;;;;;4996652;28;20056;-74
2023/04/17 00:18:33;;;;;;;61.65;42.05;;;8.10;99.90;;;;;;5011574;28;20092;-75
2023/04/17 00:21:00;;;;;;;66.40;42.65;;;8.00;99.90;;;;;;5004877;28;20073;-75
2023/04/17 00:23:27;;;;;;;58.72;41.72;;;8.00;99.90;;;;;;4978628;28;20038;-75
2023/04/17 00:25:53;;;;;;;60.35;42.85;;;8.10;99.90;;;;;;4986874;28;20045;-75
2023/04/17 00:28:20;;;;;;;62.95;42.72;;;8.10;99.90;;;;;;4978494;28;20042;-74
2023/04/17 00:30:47;;;;;;;67.85;41.95;;;8.10;99.90;;;;;;4997015;28;20046;-75
2023/04/17 00:33:14;;;;;;;66.20;42.38;;;8.10;99.90;;;;;;5008480;28;20048;-75
2023/04/17 00:35:41;;;;;;;66.72;44.10;;;8.00;99.90;;;;;;5009204;28;20042;-75
2023/04/17 00:38:08;;;;;;;67.25;42.42;;;8.00;99.90;;;;;;5014204;28;20049;-76
2023/04/17 00:40:36;;;;;;;64.53;42.10;;;7.90;99.90;;;;;;4992149;28;20050;-77
2023/04/17 00:43:05;;;;;;;62.80;42.75;;;7.90;99.90;;;;;;5014540;28;20519;-74
2023/04/17 00:45:32;;;;;;;69.50;42.95;;;7.90;99.90;;;;;;4999120;28;20077;-76
2023/04/17 00:48:02;;;;;;;62.97;42.88;;;8.00;99.90;;;;;;5000157;28;20060;-75
2023/04/17 00:50:30;;;;;;;65.18;41.47;;;7.90;99.90;;;;;;5004355;28;20370;-75
2023/04/17 00:52:57;;;;;;;66.22;40.70;;;8.00;99.90;;;;;;5005562;28;20103;-74
2023/04/17 00:55:25;;;;;;;65.65;40.10;;;7.80;99.90;;;;;;5002313;28;20052;-75
2023/04/17 00:57:52;;;;;;;65.55;40.38;;;7.80;99.90;;;;;;4981886;28;20153;-75
2023/04/17 01:00:19;;;;;;;69.43;43.10;;;7.80;99.90;;;;;;4979753;28;20038;-75
2023/04/17 01:02:45;;;;;;;63.95;41.45;;;7.90;99.90;;;;;;5013329;28;20128;-74
2023/04/17 01:05:13;;;;;;;68.72;41.33;;;7.90;99.90;;;;;;5015905;28;20069;-74
2023/04/17 01:07:41;;;;;;;61.00;41.95;;;7.90;99.90;;;;;;5010999;28;20050;-74
2023/04/17 01:10:08;;;;;;;66.65;41.95;;;7.90;99.90;;;;;;5012209;28;20034;-75
2023/04/17 01:12:35;;;;;;;68.63;42.78;;;7.90;99.90;;;;;;5009621;28;20076;-75
2023/04/17 01:15:03;;;;;;;63.28;39.70;;;7.90;99.90;;;;;;5000991;28;20072;-76
2023/04/17 01:17:30;;;;;;;66.70;41.40;;;7.90;99.90;;;;;;5015291;28;20137;-75
2023/04/17 01:19:57;;;;;;;67.57;40.67;;;7.90;99.90;;;;;;4982571;28;20052;-75
2023/04/17 01:22:24;;;;;;;72.75;41.63;;;7.90;99.90;;;;;;4999994;28;20100;-74
2023/04/17 01:24:55;;;;;;;62.60;40.55;;;7.90;99.90;;;;;;5012393;28;20037;-74
2023/04/17 01:27:23;;;;;;;69.85;42.20;;;7.90;99.90;;;;;;5012008;28;20044;-75
2023/04/17 01:29:50;;;;;;;66.97;40.97;;;8.00;99.90;;;;;;4999890;28;20042;-75
2023/04/17 01:32:18;;;;;;;70.57;41.28;;;8.00;99.90;;;;;;4998636;28;20038;-75
2023/04/17 01:34:44;;;;;;;72.43;43.30;;;8.00;99.90;;;;;;4992639;28;20493;-75
2023/04/17 01:37:11;;;;;;;65.10;43.25;;;7.90;99.90;;;;;;4994992;28;20095;-75
2023/04/17 01:39:39;;;;;;;69.97;42.33;;;7.90;99.90;;;;;;5021674;28;20072;-75
2023/04/17 01:42:06;;;;;;;70.38;42.70;;;7.90;99.90;;;;;;5008179;28;20042;-76
2023/04/17 01:44:35;;;;;;;72.70;43.55;;;8.00;99.90;;;;;;5004825;28;20053;-75
2023/04/17 01:47:02;;;;;;;71.82;44.63;;;8.00;99.90;;;;;;4987090;28;20046;-75
2023/04/17 01:49:29;;;;;;;81.78;42.33;;;7.90;99.90;;;;;;4999313;28;20053;-75
2023/04/17 01:51:56;;;;;;;67.45;44.53;;;7.90;99.90;;;;;;4982550;28;20476;-75
2023/04/17 01:54:23;;;;;;;75.25;46.13;;;7.90;99.90;;;;;;5014068;28;20061;-76
2023/04/17 01:56:50;;;;;;;75.35;45.22;;;7.90;99.90;;;;;;5019127;28;20049;-75
2023/04/17 01:59:17;;;;;;;76.63;45.92;;;8.00;99.90;;;;;;4993599;28;20042;-75
2023/04/17 02:01:44;;;;;;;83.97;47.33;;;8.00;99.90;;;;;;5010565;28;20042;-75
2023/04/17 02:04:11;;;;;;;73.47;44.75;;;7.90;99.90;;;;;;5007738;28;20049;-75
2023/04/17 02:06:37;;;;;;;71.95;43.97;;;8.00;99.90;;;;;;5000026;28;20044;-75
2023/04/17 02:09:04;;;;;;;73.75;46.42;;;7.90;99.90;;;;;;4987203;28;20045;-75
2023/04/17 02:11:31;;;;;;;76.40;44.40;;;7.90;99.90;;;;;;4994380;28;20048;-76
2023/04/17 02:13:58;;;;;;;69.88;43.28;;;7.80;99.90;;;;;;4991589;28;20137;-74
2023/04/17 02:16:25;;;;;;;85.43;47.40;;;7.80;99.90;;;;;;4998531;28;20125;-74
2023/04/17 02:18:52;;;;;;;83.35;46.38;;;7.90;99.90;;;;;;5002782;28;20037;-75
2023/04/17 02:21:20;;;;;;;86.35;48.47;;;8.00;99.90;;;;;;5016219;28;20417;-74
2023/04/17 02:23:46;;;;;;;78.53;47.25;;;8.00;99.90;;;;;;5010687;28;20034;-75
2023/04/17 02:26:13;;;;;;;75.95;46.00;;;7.90;99.90;;;;;;5000354;28;20136;-74
2023/04/17 02:28:44;;;;;;;79.55;46.15;;;7.90;99.90;;;;;;5005386;28;20435;-75
2023/04/17 02:31:11;;;;;;;83.03;48.03;;;7.90;99.90;;;;;;5002523;28;20084;-76
2023/04/17 02:33:38;;;;;;;73.85;47.15;;;7.90;99.90;;;;;;4983410;28;21156;-76
2023/04/17 02:36:06;;;;;;;84.28;48.60;;;7.90;99.90;;;;;;5000196;28;20042;-75
2023/04/17 02:38:38;;;;;;;81.40;49.63;;;7.90;99.90;;;;;;4996213;28;20943;-75
2023/04/17 02:41:05;;;;;;;81.78;48.67;;;7.80;99.90;;;;;;4992298;28;20410;-75
2023/04/17 02:43:32;;;;;;;76.50;47.42;;;7.80;99.90;;;;;;5002044;28;20042;-75
2023/04/17 02:46:00;;;;;;;79.95;47.13;;;7.80;99.90;;;;;;5001440;28;20038;-74
2023/04/17 02:48:26;;;;;;;84.10;48.83;;;7.90;99.90;;;;;;4976875;28;20666;-75
2023/04/17 02:50:53;;;;;;;80.75;50.47;;;7.80;99.90;;;;;;5017943;28;20042;-75
2023/04/17 02:53:21;;;;;;;88.43;52.15;;;8.00;99.90;;;;;;4995718;28;20138;-76
2023/04/17 02:55:48;;;;;;;78.50;48.63;;;8.00;99.90;;;;;;5013265;28;20111;-75
2023/04/17 02:58:18;;;;;;;80.32;50.88;;;8.10;99.90;;;;;;4997613;28;20088;-75
2023/04/17 03:00:44;;;;;;;80.47;50.60;;;7.90;99.90;;;;;;5004587;28;20033;-74
2023/04/17 03:03:15;;;;;;;85.40;49.97;;;7.90;99.90;;;;;;5014986;28;20554;-75
2023/04/17 03:05:42;;;;;;;87.25;50.55;;;7.80;99.90;;;;;;5011561;28;20511;-75
2023/04/17 03:08:08;;;;;;;87.70;50.15;;;7.80;99.90;;;;;;5012666;28;20108;-75
2023/04/17 03:10:43;;;;;;;80.85;48.78;;;7.80;99.90;;;;;;5008158;28;20049;-75
2023/04/17 03:13:10;;;;;;;82.38;50.30;;;7.70;99.90;;;;;;4998845;28;20038;-75
2023/04/17 03:15:37;;;;;;;78.13;47.90;;;7.70;99.90;;;;;;4995081;28;20038;-74
2023/04/17 03:18:03;;;;;;;81.80;49.88;;;7.70;99.90;;;;;;4983388;28;20136;-74
2023/04/17 03:20:31;;;;;;;83.82;50.05;;;7.60;99.90;;;;;;4981581;28;20083;-75
2023/04/17 03:22:59;;;;;;;85.72;49.90;;;7.60;99.90;;;;;;5011169;28;20050;-74
2023/04/17 03:25:26;;;;;;;88.43;51.78;;;7.60;99.90;;;;;;4998012;28;20517;-75
2023/04/17 03:27:55;;;;;;;84.15;50.78;;;7.60;99.90;;;;;;4998575;28;20042;-76
2023/04/17 03:30:27;;;;;;;83.70;50.65;;;7.50;99.90;;;;;;5001031;28;20073;-77
2023/04/17 03:32:56;;;;;;;85.93;51.22;;;7.60;99.90;;;;;;5002138;28;20050;-75
2023/04/17 03:35:23;;;;;;;79.88;48.55;;;7.60;99.90;;;;;;5002554;28;20042;-76
2023/04/17 03:37:50;;;;;;;80.82;49.55;;;7.60;99.90;;;;;;4997820;28;20784;-75
2023/04/17 03:40:17;;;;;;;85.28;52.45;;;7.40;99.90;;;;;;4984373;28;20128;-75
2023/04/17 03:42:45;;;;;;;85.30;48.53;;;7.40;99.90;;;;;;5015824;28;20129;-76
2023/04/17 03:45:12;;;;;;;92.95;49.70;;;7.40;99.90;;;;;;4996848;28;20649;-75
2023/04/17 03:47:39;;;;;;;84.75;48.92;;;7.50;99.90;;;;;;5011478;28;20543;-76
2023/04/17 03:50:06;;;;;;;85.97;49.40;;;7.40;99.90;;;;;;5003010;28;20157;-75
2023/04/17 03:52:38;;;;;;;89.70;51.75;;;7.30;99.90;;;;;;4983559;28;20042;-76
2023/04/17 03:55:06;;;;;;;85.43;49.63;;;7.30;99.90;;;;;;5001726;28;20100;-75
2023/04/17 03:57:32;;;;;;;85.80;49.33;;;7.30;99.90;;;;;;4978933;28;20037;-74
2023/04/17 04:00:00;;;;;;;86.85;51.15;;;7.30;99.90;;;;;;4981312;28;20084;-74
2023/04/17 04:02:33;;;;;;;83.85;50.30;;;7.20;99.90;;;;;;4997459;28;20050;-75
2023/04/17 04:05:00;;;;;;;93.55;53.00;;;7.20;99.90;;;;;;4993058;28;20263;-75
2023/04/17 04:07:27;;;;;;;87.93;49.92;;;7.20;99.90;;;;;;5018694;28;20067;-75
2023/04/17 04:09:54;;;;;;;96.35;54.55;;;7.20;99.90;;;;;;5002521;28;20087;-75
2023/04/17 04:12:21;;;;;;;91.32;52.25;;;7.20;99.90;;;;;;4997299;28;20128;-75
2023/04/17 04:14:50;;;;;;;88.43;49.70;;;7.20;99.90;;;;;;4983406;28;20054;-74
2023/04/17 04:17:17;;;;;;;91.63;52.35;;;7.20;99.90;;;;;;5007938;28;20049;-75
2023/04/17 04:19:45;;;;;;;93.45;50.70;;;7.10;99.90;;;;;;4997419;28;20041;-75
2023/04/17 04:22:13;;;;;;;89.90;53.17;;;7.10;99.90;;;;;;4999416;28;20104;-75
2023/04/17 04:24:46;;;;;;;87.57;50.13;;;7.10;99.90;;;;;;4979807;28;20103;-75
2023/04/17 04:27:17;;;;;;;86.88;49.13;;;7.00;99.90;;;;;;4998409;28;20046;-75
2023/04/17 04:29:47;;;;;;;87.93;51.75;;;7.00;99.90;;;;;;4997515;28;20061;-75
2023/04/17 04:32:16;;;;;;;90.55;50.10;;;7.10;99.90;;;;;;5010676;28;20042;-75
2023/04/17 04:34:45;;;;;;;87.55;52.15;;;7.10;99.90;;;;;;4992482;28;20057;-74
2023/04/17 04:37:14;;;;;;;82.53;48.63;;;7.10;99.90;;;;;;4977259;28;20122;-75
2023/04/17 04:39:43;;;;;;;93.20;51.15;;;7.10;99.90;;;;;;4995609;28;20068;-74
2023/04/17 04:42:20;;;;;;;83.70;48.80;;;7.00;99.90;;;;;;4986530;28;20530;-74
2023/04/17 04:45:06;;;;;;;85.63;49.50;;;7.00;99.90;;;;;;5008111;28;20050;-74
2023/04/17 04:47:35;;;;;;;90.97;49.28;;;7.00;99.90;;;;;;4997957;28;20052;-74
2023/04/17 04:50:02;;;;;;;89.80;48.88;;;7.00;99.90;;;;;;4996316;28;20053;-75
2023/04/17 04:52:29;;;;;;;81.97;48.42;;;6.90;99.90;;;;;;5011547;28;20437;-74
2023/04/17 04:55:00;;;;;;;79.93;47.40;;;6.90;99.90;;;;;;5006318;28;20046;-75
2023/04/17 04:57:28;;;;;;;89.60;51.80;;;6.90;99.90;;;;;;5008918;28;20046;-75
2023/04/17 04:59:58;;;;;;;85.25;49.97;;;7.00;99.90;;;;;;4996658;28;20046;-75
2023/04/17 05:02:36;;;;;;;84.50;47.72;;;7.00;99.90;;;;;;4995197;28;20046;-76
2023/04/17 05:05:08;;;;;;;88.15;50.65;;;7.00;99.90;;;;;;4968729;28;20038;-75
2023/04/17 05:07:35;;;;;;;80.00;50.35;;;7.00;99.90;;;;;;4981695;28;20086;-75
2023/04/17 05:10:05;;;;;;;85.45;48.22;;;7.00;99.90;;;;;;4983329;28;20043;-76
2023/04/17 05:12:35;;;;;;;87.25;48.78;;;7.00;99.90;;;;;;5012411;28;20121;-77
2023/04/17 05:15:05;;;;;;;83.43;50.63;;;7.00;99.90;;;;;;4998168;28;20042;-78
2023/04/17 05:17:32;;;;;;;88.07;52.25;;;7.00;99.90;;;;;;5007756;28;20038;-78
2023/04/17 05:19:59;;;;;;;89.35;52.20;;;7.00;99.90;;;;;;5013749;28;20419;-78
2023/04/17 05:22:28;;;;;;;86.65;51.47;;;7.00;99.90;;;;;;5011208;28;20042;-75
2023/04/17 05:25:03;;;;;;;83.55;49.50;;;7.10;99.90;;;;;;5003437;28;20042;-75
2023/04/17 05:27:30;;;;;;;82.50;50.42;;;7.10;99.90;;;;;;5005751;28;20042;-75
2023/04/17 05:29:58;;;;;;;83.05;50.42;;;7.10;99.90;;;;;;4995644;28;20045;-77
2023/04/17 05:32:24;;;;;;;84.18;46.75;;;7.10;99.90;;;;;;5003897;28;20050;-77
2023/04/17 05:34:55;;;;;;;86.40;49.08;;;7.10;99.90;;;;;;4998422;28;20093;-77
2023/04/17 05:37:24;;;;;;;87.97;49.90;;;7.10;99.90;;;;;;5018694;28;20049;-76
2023/04/17 05:39:51;;;;;;;87.63;50.17;;;7.10;99.90;;;;;;5004002;28;20073;-76
2023/04/17 05:42:18;;;;;;;78.15;46.38;;;7.20;99.90;;;;;;5017635;28;20038;-77
2023/04/17 05:44:45;;;;;;;79.32;47.55;;;7.20;99.90;;;;;;4999728;28;20407;-77
2023/04/17 05:47:11;;;;;;;78.32;48.22;;;7.20;99.90;;;;;;5014197;28;20053;-77
2023/04/17 05:49:38;;;;;;;73.40;45.45;;;7.20;99.90;;;;;;5000946;28;20058;-77
2023/04/17 05:52:05;;;;;;;73.45;45.63;;;7.10;99.90;;;;;;5004646;28;20045;-77
2023/04/17 05:54:36;;;;;;;76.70;48.30;;;7.10;99.90;;;;;;4995839;28;20082;-77
2023/04/17 05:57:03;;;;;;;73.20;47.47;;;7.20;99.90;;;;;;5013799;28;20719;-77
2023/04/17 05:59:30;;;;;;;78.68;44.78;;;7.20;99.90;;;;;;4997137;28;20034;-77
2023/04/17 06:01:58;;;;;;;67.88;42.70;;;7.20;99.90;;;;;;5006483;28;20045;-77
2023/04/17 06:04:25;;;;;;;69.65;43.67;;;7.20;99.90;;;;;;5017171;28;20042;-76
2023/04/17 06:06:52;;;;;;;63.85;42.08;;;7.30;99.90;;;;;;4978783;28;20715;-77
2023/04/17 06:09:20;;;;;;;68.18;42.33;;;7.20;99.90;;;;;;4997397;28;20551;-77
2023/04/17 06:11:48;;;;;;;63.38;41.22;;;7.10;99.90;;;;;;4997124;28;20034;-77
2023/04/17 06:14:14;;;;;;;59.10;38.97;;;7.10;99.90;;;;;;4995695;28;20045;-77
2023/04/17 06:16:41;;;;;;;64.55;40.20;;;7.10;99.90;;;;;;4997177;28;20057;-77
2023/04/17 06:19:08;;;;;;;68.82;42.95;;;7.10;99.90;;;;;;4990483;28;20125;-77
2023/04/17 06:21:35;;;;;;;63.13;41.35;;;7.20;99.90;;;;;;4992178;28;20060;-77
2023/04/17 06:24:02;;;;;;;58.92;40.10;;;7.20;99.90;;;;;;4999278;28;20552;-77
2023/04/17 06:26:28;;;;;;;60.67;40.45;;;7.20;99.90;;;;;;4994978;28;20568;-77
2023/04/17 06:28:55;;;;;;;56.17;40.53;;;7.10;99.90;;;;;;5008118;28;20039;-78
2023/04/17 06:31:23;;;;;;;66.55;40.38;;;7.20;99.90;;;;;;5014498;28;20066;-77
2023/04/17 06:33:50;;;;;;;55.97;38.50;;;7.20;99.90;;;;;;5000690;28;20112;-78
2023/04/17 06:36:22;;;;;;;61.03;39.90;;;7.10;99.90;;;;;;4999876;28;20037;-77
2023/04/17 06:38:53;;;;;;;56.40;38.25;;;7.20;99.90;;;;;;5015057;28;20042;-74
2023/04/17 06:41:20;;;;;;;57.90;38.80;;;7.50;99.90;;;;;;5007010;28;20042;-75
2023/04/17 06:43:47;;;;;;;56.88;39.17;;;7.50;99.90;;;;;;4997970;28;20034;-74
2023/04/17 06:46:14;;;;;;;57.28;40.97;;;7.40;99.90;;;;;;5011822;28;20053;-75
2023/04/17 06:48:40;;;;;;;59.28;41.33;;;7.40;99.90;;;;;;4998162;28;20050;-74
2023/04/17 06:51:07;;;;;;;54.80;42.67;;;7.60;99.90;;;;;;5013767;28;20128;-74
2023/04/17 06:53:34;;;;;;;50.70;40.03;;;7.50;99.90;;;;;;5010442;28;20042;-75
2023/04/17 06:56:00;;;;;;;52.75;40.22;;;7.50;99.90;;;;;;4997434;28;20042;-74
2023/04/17 06:58:27;;;;;;;51.55;41.17;;;7.60;99.90;;;;;;4999183;28;20069;-75
2023/04/17 07:00:54;;;;;;;52.13;39.13;;;7.80;99.90;;;;;;5002851;28;20402;-74
2023/04/17 07:03:20;;;;;;;48.40;39.10;;;7.70;99.90;;;;;;5017603;28;20050;-75
2023/04/17 07:05:47;;;;;;;46.60;39.97;;;7.80;99.90;;;;;;5007414;28;20448;-74
2023/04/17 07:08:14;;;;;;;48.65;39.58;;;7.90;99.90;;;;;;4995867;28;20050;-74
2023/04/17 07:10:41;;;;;;;47.08;39.85;;;8.00;99.90;;;;;;4999410;28;20054;-75
2023/04/17 07:13:08;;;;;;;50.67;40.28;;;8.00;99.90;;;;;;5016276;28;20045;-74
2023/04/17 07:15:34;;;;;;;50.97;40.15;;;8.20;99.90;;;;;;4995242;28;20046;-75
2023/04/17 07:18:01;;;;;;;54.50;40.50;;;8.20;99.90;;;;;;5013532;28;20041;-74
2023/04/17 07:20:28;;;;;;;47.45;40.70;;;8.10;99.90;;;;;;5014910;28;20065;-74
2023/04/17 07:22:55;;;;;;;58.10;40.08;;;8.00;99.90;;;;;;4996262;28;20084;-74
2023/04/17 07:25:22;;;;;;;44.42;39.83;;;7.90;99.90;;;;;;5019347;28;20038;-74
2023/04/17 07:27:49;;;;;;;45.28;38.65;;;7.90;99.90;;;;;;4999000;28;20506;-74
2023/04/17 07:30:15;;;;;;;45.40;40.38;;;8.00;99.90;;;;;;4993836;28;20038;-74
2023/04/17 07:32:42;;;;;;;44.03;36.83;;;7.80;99.90;;;;;;5012867;28;20038;-75
2023/04/17 07:35:09;;;;;;;43.28;37.08;;;7.90;99.90;;;;;;4998679;28;20528;-74
2023/04/17 07:37:36;;;;;;;46.08;39.70;;;7.80;99.90;;;;;;5003367;28;20042;-75
2023/04/17 07:40:04;;;;;;;44.83;40.00;;;8.00;99.90;;;;;;5004340;28;20617;-75
2023/04/17 07:42:31;;;;;;;42.28;37.70;;;8.20;99.90;;;;;;5000764;28;20042;-74
2023/04/17 07:44:57;;;;;;;47.30;41.97;;;8.50;99.90;;;;;;4978156;28;20048;-75
2023/04/17 07:47:24;;;;;;;47.15;41.55;;;8.80;99.90;;;;;;4997818;28;20190;-75
2023/04/17 07:49:51;;;;;;;46.63;40.30;;;8.80;99.90;;;;;;4987886;28;20105;-74
2023/04/17 07:52:18;;;;;;;45.13;40.28;;;8.70;99.90;;;;;;4982892;28;20046;-74
2023/04/17 07:54:44;;;;;;;45.22;40.67;;;8.90;99.90;;;;;;4996968;28;20061;-74
2023/04/17 07:57:13;;;;;;;43.55;39.05;;;8.90;99.90;;;;;;4985136;28;20817;-74
2023/04/17 07:59:39;;;;;;;44.05;39.42;;;8.60;99.90;;;;;;4973649;28;20048;-74
2023/04/17 08:02:06;;;;;;;46.58;41.60;;;8.80;99.90;;;;;;4998957;28;20697;-74
2023/04/17 08:04:34;;;;;;;43.00;38.78;;;8.80;99.90;;;;;;5003564;28;20038;-72
2023/04/17 08:07:01;;;;;;;42.15;38.42;;;8.90;99.90;;;;;;4998142;28;20125;-75
2023/04/17 08:09:46;;;;;;;41.22;37.30;;;8.80;99.90;;;;;;4997843;28;20096;-74
2023/04/17 08:12:13;;;;;;;42.90;38.72;;;8.80;99.90;;;;;;5002503;28;20034;-75
2023/04/17 08:14:40;;;;;;;42.85;38.17;;;9.00;99.90;;;;;;5011468;28;20500;-74
2023/04/17 08:17:07;;;;;;;43.22;38.75;;;9.20;99.90;;;;;;4996816;28;20046;-75
2023/04/17 08:19:34;;;;;;;44.05;40.30;;;9.60;99.90;;;;;;5001836;28;20037;-74
2023/04/17 08:22:03;;;;;;;44.83;40.42;;;9.90;99.90;;;;;;5001302;28;20065;-74
2023/04/17 08:24:30;;;;;;;42.83;39.13;;;9.80;99.90;;;;;;5017205;28;20046;-75
2023/04/17 08:26:57;;;;;;;45.60;41.38;;;10.00;99.90;;;;;;4979367;28;20444;-75
2023/04/17 08:29:25;;;;;;;45.47;41.40;;;9.90;99.90;;;;;;5014291;28;20042;-74
2023/04/17 08:31:51;;;;;;;45.25;41.47;;;10.50;99.90;;;;;;4995496;28;20045;-74
2023/04/17 08:34:32;;;;;;;44.88;41.15;;;10.70;99.90;;;;;;5000457;28;20150;-74
2023/04/17 08:36:59;;;;;;;42.63;39.20;;;10.80;99.90;;;;;;4992052;28;20539;-74
2023/04/17 08:39:26;;;;;;;42.88;39.13;;;10.90;99.90;;;;;;5012825;28;20038;-75
2023/04/17 08:42:00;;;;;;;44.28;40.47;;;10.40;99.90;;;;;;5001111;28;20037;-75
2023/04/17 08:44:27;;;;;;;41.05;37.53;;;10.60;99.90;;;;;;5009909;28;20052;-72
2023/04/17 08:46:57;;;;;;;41.85;38.50;;;11.10;99.90;;;;;;5000165;28;20040;-74
2023/04/17 08:49:28;;;;;;;42.97;39.33;;;11.10;99.90;;;;;;4996480;28;20046;-73
2023/04/17 08:51:54;;;;;;;38.92;35.72;;;11.60;99.90;;;;;;4996202;28;20042;-75
2023/04/17 08:54:21;;;;;;;39.55;36.40;;;11.70;99.90;;;;;;5011852;28;20050;-74
2023/04/17 08:56:48;;;;;;;41.42;38.08;;;11.50;99.90;;;;;;5001033;28;20033;-74
2023/04/17 08:59:16;;;;;;;41.75;38.25;;;11.80;99.90;;;;;;5009719;28;20070;-74
2023/04/17 09:02:06;;;;;;;42.03;38.30;;;11.20;99.90;;;;;;5007194;28;20045;-76
2023/04/17 09:04:40;;;;;;;45.22;41.33;;;10.70;99.90;;;;;;5005276;28;20499;-75
2023/04/17 09:07:10;;;;;;;40.05;36.75;;;10.80;99.90;;;;;;5001412;28;20034;-76
2023/04/17 09:09:48;;;;;;;41.35;37.88;;;11.00;99.90;;;;;;4997427;28;20042;-75
2023/04/17 09:12:15;;;;;;;38.70;35.47;;;11.00;99.90;;;;;;4998355;28;20133;-75
2023/04/17 09:14:42;;;;;;;39.10;35.92;;;11.30;99.90;;;;;;5000215;28;20268;-74
2023/04/17 09:17:09;;;;;;;40.30;36.58;;;11.10;99.90;;;;;;5007775;28;20495;-74
2023/04/17 09:19:36;;;;;;;39.25;36.15;;;11.10;99.90;;;;;;5014922;28;20042;-73
2023/04/17 09:22:20;;;;;;;39.00;35.75;;;11.50;99.90;;;;;;4993266;28;20042;-74
2023/04/17 09:24:47;;;;;;;40.20;36.75;;;11.20;99.90;;;;;;5000338;28;20042;-73
2023/04/17 09:27:24;;;;;;;38.72;35.58;;;11.30;99.90;;;;;;5002719;28;20038;-74
2023/04/17 09:30:02;;;;;;;40.00;36.58;;;11.60;99.90;;;;;;5007256;28;20046;-74
2023/04/17 09:32:31;;;;;;;40.60;37.13;;;11.40;99.90;;;;;;5002931;28;20050;-74
2023/04/17 09:35:03;;;;;;;41.38;37.30;;;12.00;99.90;;;;;;5000419;28;20206;-75
2023/04/17 09:37:53;;;;;;;42.00;38.33;;;12.60;99.90;;;;;;4999752;28;20045;-73
2023/04/17 09:40:22;;;;;;;40.00;36.70;;;12.40;99.90;;;;;;5003514;28;20046;-75
2023/04/17 09:43:05;;;;;;;39.58;36.40;;;12.40;99.90;;;;;;5004212;28;20358;-74
2023/04/17 09:45:40;;;;;;;41.47;37.97;;;13.40;99.90;;;;;;5003273;28;20067;-74
2023/04/17 09:48:10;;;;;;;41.30;38.03;;;13.20;99.90;;;;;;5002248;28;20440;-72
2023/04/17 09:50:37;;;;;;;40.85;37.47;;;13.10;99.90;;;;;;5004529;28;20069;-72
2023/04/17 09:53:06;;;;;;;42.83;39.38;;;13.40;99.90;;;;;;5000073;28;20488;-74
2023/04/17 09:55:35;;;;;;;40.20;37.25;;;13.40;99.90;;;;;;4993827;28;20402;-74
2023/04/17 09:58:03;;;;;;;40.33;37.25;;;13.00;99.90;;;;;;4997134;28;20703;-74
2023/04/17 10:00:30;;;;;;;39.10;36.08;;;13.30;99.90;;;;;;5000541;28;20125;-74
2023/04/17 10:02:58;;;;;;;43.45;40.00;;;13.50;99.90;;;;;;5006707;28;20447;-73
2023/04/17 10:05:30;;;;;;;46.83;43.63;;;13.60;99.90;;;;;;4999585;28;20450;-74
2023/04/17 10:07:57;;;;;;;46.53;43.03;;;14.00;99.90;;;;;;4995149;28;20054;-72
2023/04/17 10:10:29;;;;;;;46.40;42.90;;;13.60;99.90;;;;;;4999404;28;20065;-74
2023/04/17 10:13:10;;;;;;;48.20;44.47;;;13.30;99.90;;;;;;4989671;28;20049;-73
2023/04/17 10:15:38;;;;;;;45.53;42.00;;;12.70;99.90;;;;;;4982424;28;20049;-74
2023/04/17 10:18:31;;;;;;;48.22;44.50;;;12.70;99.90;;;;;;5017853;28;20052;-75
2023/04/17 10:21:22;;;;;;;48.47;44.90;;;12.60;99.90;;;;;;5012117;28;20106;-75
2023/04/17 10:23:49;;;;;;;50.80;46.85;;;12.60;99.90;;;;;;4997636;28;20056;-74
2023/04/17 10:26:24;;;;;;;48.75;44.65;;;12.80;99.90;;;;;;5002732;28;20439;-74
2023/04/17 10:28:53;;;;;;;48.65;45.25;;;13.00;99.90;;;;;;5008513;28;20058;-75
2023/04/17 10:31:22;;;;;;;47.65;44.03;;;12.80;99.90;;;;;;4995267;28;20034;-72
2023/04/17 10:33:53;;;;;;;47.05;43.50;;;12.80;99.90;;;;;;5002296;28;20109;-75
2023/04/17 10:36:38;;;;;;;47.00;43.30;;;12.80;99.90;;;;;;4997212;28;20050;-72
2023/04/17 10:39:15;;;;;;;45.20;42.00;;;12.90;99.90;;;;;;4998488;28;20054;-74
2023/04/17 10:42:00;;;;;;;46.65;43.05;;;12.70;99.90;;;;;;4996567;28;20046;-73
2023/04/17 10:44:34;;;;;;;47.30;43.42;;;12.70;99.90;;;;;;5002181;28;20112;-75
2023/04/17 10:47:14;;;;;;;48.30;44.72;;;12.80;99.90;;;;;;4988961;28;20145;-75
2023/04/17 10:49:54;;;;;;;48.80;45.13;;;12.70;99.90;;;;;;4978772;28;20050;-74
2023/04/17 10:52:33;;;;;;;45.63;41.92;;;13.00;99.90;;;;;;5000214;28;20611;-74
2023/04/17 10:55:15;;;;;;;43.10;39.95;;;12.90;99.90;;;;;;5008253;28;20524;-74
2023/04/17 10:57:58;;;;;;;46.53;43.03;;;12.80;99.90;;;;;;4989050;28;20073;-73
2023/04/17 11:00:32;;;;;;;49.25;44.95;;;12.50;99.90;;;;;;4995883;28;20041;-73
2023/04/17 11:03:00;;;;;;;;;;;12.50;99.90;;;;;;4999898;28;20296;-72
2023/04/17 11:05:27;;;;;;;47.72;44.28;;;12.50;99.90;;;;;;4998222;28;20546;-75
2023/04/17 11:07:54;;;;;;;50.30;46.35;;;12.90;99.90;;;;;;4995521;28;20056;-75
2023/04/17 11:10:21;;;;;;;50.75;47.20;;;13.60;99.90;;;;;;5002706;28;20669;-73
2023/04/17 11:12:54;;;;;;;49.88;46.35;;;13.70;99.90;;;;;;5006901;28;20079;-76
2023/04/17 11:15:29;;;;;;;49.30;46.05;;;13.50;99.90;;;;;;5008786;28;20057;-73
2023/04/17 11:17:57;;;;;;;45.42;41.67;;;13.70;99.90;;;;;;4975919;28;20129;-75
2023/04/17 11:20:29;;;;;;;49.40;45.67;;;13.50;99.90;;;;;;4993918;28;20049;-74
2023/04/17 11:23:01;;;;;;;45.22;41.83;;;13.20;99.90;;;;;;5000811;28;20041;-73
2023/04/17 11:25:30;;;;;;;45.25;41.83;;;13.50;99.90;;;;;;4995085;28;20038;-72
2023/04/17 11:27:58;;;;;;;47.42;43.92;;;13.40;99.90;;;;;;5010976;28;20045;-73
2023/04/17 11:30:32;;;;;;;45.33;41.70;;;13.50;99.90;;;;;;5010808;28;20090;-73
2023/04/17 11:33:01;;;;;;;49.55;45.88;;;13.90;99.90;;;;;;5001126;28;20041;-73
2023/04/17 11:35:33;;;;;;;43.28;39.80;;;13.60;99.90;;;;;;4995100;28;20050;-73
2023/04/17 11:38:19;;;;;;;42.75;39.17;;;13.40;99.90;;;;;;4999365;28;20126;-75
2023/04/17 11:40:52;;;;;;;44.30;40.75;;;13.60;99.90;;;;;;4996314;28;20033;-72
2023/04/17 11:43:20;;;;;;;47.33;43.40;;;13.00;99.90;;;;;;5001066;28;20041;-73
2023/04/17 11:45:52;;;;;;;47.80;44.15;;;12.70;99.90;;;;;;4995208;28;20049;-72
2023/04/17 11:48:21;;;;;;;47.42;43.85;;;12.50;99.90;;;;;;4997581;28;20045;-73
2023/04/17 11:50:52;;;;;;;43.70;40.17;;;12.70;99.90;;;;;;5005774;28;20396;-75
2023/04/17 11:53:19;;;;;;;49.28;44.83;;;12.70;99.90;;;;;;5005107;28;20159;-74
2023/04/17 11:55:47;;;;;;;46.17;42.67;;;12.70;99.90;;;;;;5007161;28;20068;-72
2023/04/17 11:58:14;;;;;;;43.55;40.08;;;13.20;99.90;;;;;;4990311;28;20038;-73
2023/04/17 12:00:41;;;;;;;42.78;39.65;;;13.50;99.90;;;;;;4994765;28;20034;-74
2023/04/17 12:03:34;;;;;;;48.95;44.95;;;13.70;99.90;;;;;;4988649;28;20054;-74
2023/04/17 12:06:03;;;;;;;43.67;40.08;;;14.20;99.90;;;;;;4991421;28;20076;-73
2023/04/17 12:08:30;;;;;;;43.80;40.42;;;13.70;99.90;;;;;;4986440;28;20046;-74
2023/04/17 12:10:57;;;;;;;44.92;41.65;;;13.40;99.90;;;;;;5014160;28;20145;-73
2023/04/17 12:13:25;;;;;;;45.45;42.15;;;13.50;99.90;;;;;;5000656;28;20038;-73
2023/04/17 12:15:51;;;;;;;46.40;42.83;;;13.20;99.90;;;;;;4997791;28;20050;-74
2023/04/17 12:18:18;;;;;;;48.45;45.05;;;13.20;99.90;;;;;;5012210;28;20134;-73
2023/04/17 12:20:45;;;;;;;47.78;43.85;;;12.70;99.90;;;;;;5012410;28;20041;-72
2023/04/17 12:23:12;;;;;;;48.92;43.95;;;12.80;99.90;;;;;;5012270;28;20041;-76
2023/04/17 12:25:38;;;;;;;47.90;43.92;;;12.80;99.90;;;;;;4993642;28;20590;-74
2023/04/17 12:28:05;;;;;;;47.50;44.05;;;12.50;99.90;;;;;;4995826;28;20046;-77
2023/04/17 12:30:34;;;;;;;47.72;44.03;;;12.40;99.90;;;;;;4978366;28;20038;-74
2023/04/17 12:33:01;;;;;;;47.03;43.63;;;12.40;99.90;;;;;;5000192;28;20037;-73
2023/04/17 12:35:28;;;;;;;49.67;45.55;;;12.50;99.90;;;;;;4996034;28;20176;-75
2023/04/17 12:37:55;;;;;;;47.50;44.00;;;12.50;99.90;;;;;;4992604;28;20042;-72
2023/04/17 12:40:23;;;;;;;44.72;41.33;;;12.60;99.90;;;;;;5000049;28;20077;-75
2023/04/17 12:42:50;;;;;;;45.13;41.72;;;12.70;99.90;;;;;;5001223;28;20277;-72